sensor_id;sensor_type;location;lat;lon;timestamp;temperature;humidity
6740;DHT22;3407;49.882;10.920;2023-06-24T00:02:27;15.20;21.80
6740;DHT22;3407;49.882;10.920;2023-06-24T00:07:23;15.20;29.00
6740;DHT22;3407;49.882;10.920;2023-06-24T00:12:18;15.30;31.60
6740;DHT22;3407;49.882;10.920;2023-06-24T00:17:14;15.30;22.70
6740;DHT22;3407;49.882;10.920;2023-06-24T00:22:11;15.20;14.30
6740;DHT22;3407;49.882;10.920;2023-06-24T00:27:07;15.00;17.00
6740;DHT22;3407;49.882;10.920;2023-06-24T00:32:03;14.90;18.00
6740;DHT22;3407;49.882;10.920;2023-06-24T00:36:58;14.90;22.90
6740;DHT22;3407;49.882;10.920;2023-06-24T00:41:54;14.80;22.40
6740;DHT22;3407;49.882;10.920;2023-06-24T00:46:49;14.80;22.30
6740;DHT22;3407;49.882;10.920;2023-06-24T00:51:45;14.70;23.80
6740;DHT22;3407;49.882;10.920;2023-06-24T00:56:46;14.70;26.90
6740;DHT22;3407;49.882;10.920;2023-06-24T01:01:42;14.70;25.90
6740;DHT22;3407;49.882;10.920;2023-06-24T01:06:40;14.60;21.90
6740;DHT22;3407;49.882;10.920;2023-06-24T01:11:38;14.50;25.60
6740;DHT22;3407;49.882;10.920;2023-06-24T01:22:06;14.60;36.70
6740;DHT22;3407;49.882;10.920;2023-06-24T01:27:24;14.70;35.90
6740;DHT22;3407;49.882;10.920;2023-06-24T01:32:33;14.80;27.80
6740;DHT22;3407;49.882;10.920;2023-06-24T01:37:40;14.90;27.90
6740;DHT22;3407;49.882;10.920;2023-06-24T01:42:41;14.90;15.40
6740;DHT22;3407;49.882;10.920;2023-06-24T01:47:38;15.00;16.20
6740;DHT22;3407;49.882;10.920;2023-06-24T01:52:37;14.90;6.70
6740;DHT22;3407;49.882;10.920;2023-06-24T01:57:34;14.80;2.40
6740;DHT22;3407;49.882;10.920;2023-06-24T02:02:30;14.70;13.50
6740;DHT22;3407;49.882;10.920;2023-06-24T02:07:27;14.70;14.60
6740;DHT22;3407;49.882;10.920;2023-06-24T02:12:26;14.60;13.60
6740;DHT22;3407;49.882;10.920;2023-06-24T02:17:24;14.50;17.20
6740;DHT22;3407;49.882;10.920;2023-06-24T02:22:21;14.50;20.30
6740;DHT22;3407;49.882;10.920;2023-06-24T02:27:18;14.50;26.30
6740;DHT22;3407;49.882;10.920;2023-06-24T02:32:14;14.30;24.50
6740;DHT22;3407;49.882;10.920;2023-06-24T02:37:09;14.30;33.50
6740;DHT22;3407;49.882;10.920;2023-06-24T02:42:05;14.30;35.00
6740;DHT22;3407;49.882;10.920;2023-06-24T02:47:01;14.20;25.60
6740;DHT22;3407;49.882;10.920;2023-06-24T02:51:57;13.90;13.10
6740;DHT22;3407;49.882;10.920;2023-06-24T02:56:53;13.80;19.00
6740;DHT22;3407;49.882;10.920;2023-06-24T03:01:51;13.70;21.70
6740;DHT22;3407;49.882;10.920;2023-06-24T03:06:48;13.70;16.80
6740;DHT22;3407;49.882;10.920;2023-06-24T03:11:44;13.60;19.30
6740;DHT22;3407;49.882;10.920;2023-06-24T03:16:40;13.50;22.70
6740;DHT22;3407;49.882;10.920;2023-06-24T03:21:36;13.60;29.00
6740;DHT22;3407;49.882;10.920;2023-06-24T03:26:38;13.60;25.10
6740;DHT22;3407;49.882;10.920;2023-06-24T03:31:35;13.50;23.30
6740;DHT22;3407;49.882;10.920;2023-06-24T03:36:30;13.10;23.20
6740;DHT22;3407;49.882;10.920;2023-06-24T03:41:26;13.70;23.70
6740;DHT22;3407;49.882;10.920;2023-06-24T03:46:21;13.70;15.70
6740;DHT22;3407;49.882;10.920;2023-06-24T03:51:17;13.70;14.30
6740;DHT22;3407;49.882;10.920;2023-06-24T03:56:13;13.70;11.00
6740;DHT22;3407;49.882;10.920;2023-06-24T04:01:09;13.90;14.80
6740;DHT22;3407;49.882;10.920;2023-06-24T04:06:05;14.00;11.40
6740;DHT22;3407;49.882;10.920;2023-06-24T04:11:00;14.10;11.90
6740;DHT22;3407;49.882;10.920;2023-06-24T04:15:57;14.30;17.10
6740;DHT22;3407;49.882;10.920;2023-06-24T04:20:53;14.30;11.60
6740;DHT22;3407;49.882;10.920;2023-06-24T04:25:49;14.20;12.90
6740;DHT22;3407;49.882;10.920;2023-06-24T04:30:44;14.10;18.10
6740;DHT22;3407;49.882;10.920;2023-06-24T04:35:40;14.40;32.00
6740;DHT22;3407;49.882;10.920;2023-06-24T04:40:36;14.90;1.00
6740;DHT22;3407;49.882;10.920;2023-06-24T04:45:32;14.80;1.00
6740;DHT22;3407;49.882;10.920;2023-06-24T04:50:27;14.60;1.00
6740;DHT22;3407;49.882;10.920;2023-06-24T04:55:23;14.60;1.00
6740;DHT22;3407;49.882;10.920;2023-06-24T05:00:19;14.80;1.00
6740;DHT22;3407;49.882;10.920;2023-06-24T05:05:18;14.90;1.00
6740;DHT22;3407;49.882;10.920;2023-06-24T05:10:15;15.10;1.00
6740;DHT22;3407;49.882;10.920;2023-06-24T05:15:11;15.10;1.00
6740;DHT22;3407;49.882;10.920;2023-06-24T05:20:07;15.40;1.00
6740;DHT22;3407;49.882;10.920;2023-06-24T05:25:03;15.60;1.00
6740;DHT22;3407;49.882;10.920;2023-06-24T05:29:58;15.80;1.00
6740;DHT22;3407;49.882;10.920;2023-06-24T05:34:54;15.90;1.00
6740;DHT22;3407;49.882;10.920;2023-06-24T05:39:49;16.10;1.00
6740;DHT22;3407;49.882;10.920;2023-06-24T05:44:45;16.20;1.00
6740;DHT22;3407;49.882;10.920;2023-06-24T05:49:40;16.50;1.00
6740;DHT22;3407;49.882;10.920;2023-06-24T05:54:36;16.80;1.00
6740;DHT22;3407;49.882;10.920;2023-06-24T05:59:32;17.20;1.00
6740;DHT22;3407;49.882;10.920;2023-06-24T06:04:28;17.30;1.00
6740;DHT22;3407;49.882;10.920;2023-06-24T06:09:24;17.30;1.00
6740;DHT22;3407;49.882;10.920;2023-06-24T06:14:19;17.60;1.00
6740;DHT22;3407;49.882;10.920;2023-06-24T06:19:15;18.10;99.90
6740;DHT22;3407;49.882;10.920;2023-06-24T06:24:11;19.60;1.00
6740;DHT22;3407;49.882;10.920;2023-06-24T06:29:06;23.00;99.90
6740;DHT22;3407;49.882;10.920;2023-06-24T06:34:02;25.80;99.90
6740;DHT22;3407;49.882;10.920;2023-06-24T06:38:58;27.90;99.90
6740;DHT22;3407;49.882;10.920;2023-06-24T06:43:54;29.70;99.90
6740;DHT22;3407;49.882;10.920;2023-06-24T06:48:50;30.50;99.90
6740;DHT22;3407;49.882;10.920;2023-06-24T06:53:45;29.80;99.90
6740;DHT22;3407;49.882;10.920;2023-06-24T06:58:41;30.70;99.90
6740;DHT22;3407;49.882;10.920;2023-06-24T07:03:36;30.30;99.90
6740;DHT22;3407;49.882;10.920;2023-06-24T07:08:33;31.80;99.90
6740;DHT22;3407;49.882;10.920;2023-06-24T07:13:28;32.20;99.90
6740;DHT22;3407;49.882;10.920;2023-06-24T07:18:24;32.80;94.30
6740;DHT22;3407;49.882;10.920;2023-06-24T07:23:19;32.90;92.70
6740;DHT22;3407;49.882;10.920;2023-06-24T07:28:15;33.10;83.70
6740;DHT22;3407;49.882;10.920;2023-06-24T07:33:11;34.40;81.10
6740;DHT22;3407;49.882;10.920;2023-06-24T07:38:06;35.30;69.40
6740;DHT22;3407;49.882;10.920;2023-06-24T07:43:02;33.90;61.60
6740;DHT22;3407;49.882;10.920;2023-06-24T07:47:57;30.80;71.60
6740;DHT22;3407;49.882;10.920;2023-06-24T07:52:53;28.70;90.30
6740;DHT22;3407;49.882;10.920;2023-06-24T07:57:48;27.00;98.50
6740;DHT22;3407;49.882;10.920;2023-06-24T08:02:44;26.60;99.90
6740;DHT22;3407;49.882;10.920;2023-06-24T08:07:39;26.80;99.90
6740;DHT22;3407;49.882;10.920;2023-06-24T08:12:35;27.20;99.90
6740;DHT22;3407;49.882;10.920;2023-06-24T08:17:30;27.40;99.90
6740;DHT22;3407;49.882;10.920;2023-06-24T08:22:26;28.10;99.90
6740;DHT22;3407;49.882;10.920;2023-06-24T08:27:21;28.90;99.90
6740;DHT22;3407;49.882;10.920;2023-06-24T08:32:17;29.00;99.90
6740;DHT22;3407;49.882;10.920;2023-06-24T08:37:13;29.00;97.90
6740;DHT22;3407;49.882;10.920;2023-06-24T08:42:08;28.90;95.70
6740;DHT22;3407;49.882;10.920;2023-06-24T08:47:04;29.10;94.90
6740;DHT22;3407;49.882;10.920;2023-06-24T08:52:04;29.40;90.00
6740;DHT22;3407;49.882;10.920;2023-06-24T08:57:03;29.70;76.00
6740;DHT22;3407;49.882;10.920;2023-06-24T09:02:01;29.50;75.10
6740;DHT22;3407;49.882;10.920;2023-06-24T09:06:56;29.60;70.60
6740;DHT22;3407;49.882;10.920;2023-06-24T09:11:57;30.20;62.50
6740;DHT22;3407;49.882;10.920;2023-06-24T09:16:54;30.40;61.20
6740;DHT22;3407;49.882;10.920;2023-06-24T09:21:50;30.60;63.40
6740;DHT22;3407;49.882;10.920;2023-06-24T09:26:48;31.10;61.40
6740;DHT22;3407;49.882;10.920;2023-06-24T09:31:48;31.40;57.00
6740;DHT22;3407;49.882;10.920;2023-06-24T09:36:45;31.50;54.20
6740;DHT22;3407;49.882;10.920;2023-06-24T09:41:41;32.00;55.40
6740;DHT22;3407;49.882;10.920;2023-06-24T09:46:38;32.00;52.90
6740;DHT22;3407;49.882;10.920;2023-06-24T09:51:37;31.80;53.20
6740;DHT22;3407;49.882;10.920;2023-06-24T09:56:35;31.70;47.10
6740;DHT22;3407;49.882;10.920;2023-06-24T10:01:36;31.70;43.20
6740;DHT22;3407;49.882;10.920;2023-06-24T10:06:34;31.90;48.50
6740;DHT22;3407;49.882;10.920;2023-06-24T10:11:30;32.10;39.50
6740;DHT22;3407;49.882;10.920;2023-06-24T10:16:26;32.00;41.10
6740;DHT22;3407;49.882;10.920;2023-06-24T10:21:21;33.80;38.20
6740;DHT22;3407;49.882;10.920;2023-06-24T10:31:19;35.20;26.10
6740;DHT22;3407;49.882;10.920;2023-06-24T10:36:31;35.40;28.20
6740;DHT22;3407;49.882;10.920;2023-06-24T10:41:27;33.90;24.50
6740;DHT22;3407;49.882;10.920;2023-06-24T10:46:26;34.20;29.70
6740;DHT22;3407;49.882;10.920;2023-06-24T10:51:23;35.90;24.40
6740;DHT22;3407;49.882;10.920;2023-06-24T10:56:18;37.50;18.30
6740;DHT22;3407;49.882;10.920;2023-06-24T11:01:14;37.20;16.40
6740;DHT22;3407;49.882;10.920;2023-06-24T11:06:11;34.20;27.10
6740;DHT22;3407;49.882;10.920;2023-06-24T11:11:07;33.00;23.10
6740;DHT22;3407;49.882;10.920;2023-06-24T11:16:03;32.90;22.90
6740;DHT22;3407;49.882;10.920;2023-06-24T11:20:58;35.50;18.70
6740;DHT22;3407;49.882;10.920;2023-06-24T11:25:54;38.10;14.40
6740;DHT22;3407;49.882;10.920;2023-06-24T11:30:51;35.20;11.00
6740;DHT22;3407;49.882;10.920;2023-06-24T11:35:47;35.90;11.50
6740;DHT22;3407;49.882;10.920;2023-06-24T11:40:42;37.80;10.20
6740;DHT22;3407;49.882;10.920;2023-06-24T11:45:38;37.40;4.20
6740;DHT22;3407;49.882;10.920;2023-06-24T11:50:35;35.30;6.50
6740;DHT22;3407;49.882;10.920;2023-06-24T11:55:31;35.80;6.20
6740;DHT22;3407;49.882;10.920;2023-06-24T12:00:29;37.20;1.60
6740;DHT22;3407;49.882;10.920;2023-06-24T12:05:27;34.30;2.60
6740;DHT22;3407;49.882;10.920;2023-06-24T12:10:23;35.70;6.20
6740;DHT22;3407;49.882;10.920;2023-06-24T12:15:19;38.50;2.40
6740;DHT22;3407;49.882;10.920;2023-06-24T12:20:15;39.60;1.00
6740;DHT22;3407;49.882;10.920;2023-06-24T12:25:11;39.10;1.00
6740;DHT22;3407;49.882;10.920;2023-06-24T12:30:07;36.30;1.00
6740;DHT22;3407;49.882;10.920;2023-06-24T12:35:03;37.00;1.00
6740;DHT22;3407;49.882;10.920;2023-06-24T12:40:00;38.40;1.00
6740;DHT22;3407;49.882;10.920;2023-06-24T12:44:56;39.10;1.00
6740;DHT22;3407;49.882;10.920;2023-06-24T12:49:52;40.00;1.00
6740;DHT22;3407;49.882;10.920;2023-06-24T12:54:48;38.10;1.00
6740;DHT22;3407;49.882;10.920;2023-06-24T12:59:43;34.40;1.00
6740;DHT22;3407;49.882;10.920;2023-06-24T13:04:39;32.70;1.00
6740;DHT22;3407;49.882;10.920;2023-06-24T13:09:35;34.10;1.00
6740;DHT22;3407;49.882;10.920;2023-06-24T13:14:30;33.70;1.00
6740;DHT22;3407;49.882;10.920;2023-06-24T13:19:26;35.40;1.00
6740;DHT22;3407;49.882;10.920;2023-06-24T13:24:21;36.70;1.00
6740;DHT22;3407;49.882;10.920;2023-06-24T13:29:17;35.80;1.00
6740;DHT22;3407;49.882;10.920;2023-06-24T13:34:12;33.00;1.00
6740;DHT22;3407;49.882;10.920;2023-06-24T13:39:09;31.40;1.00
6740;DHT22;3407;49.882;10.920;2023-06-24T13:44:08;31.10;1.00
6740;DHT22;3407;49.882;10.920;2023-06-24T13:49:04;31.20;1.00
6740;DHT22;3407;49.882;10.920;2023-06-24T13:54:00;31.00;1.00
6740;DHT22;3407;49.882;10.920;2023-06-24T13:58:56;30.60;1.00
6740;DHT22;3407;49.882;10.920;2023-06-24T14:03:52;30.30;1.00
6740;DHT22;3407;49.882;10.920;2023-06-24T14:08:49;30.10;1.20
6740;DHT22;3407;49.882;10.920;2023-06-24T14:13:45;29.20;1.00
6740;DHT22;3407;49.882;10.920;2023-06-24T14:18:40;28.70;1.00
6740;DHT22;3407;49.882;10.920;2023-06-24T14:23:37;28.40;3.10
6740;DHT22;3407;49.882;10.920;2023-06-24T14:28:34;28.10;3.50
6740;DHT22;3407;49.882;10.920;2023-06-24T14:33:29;27.80;5.10
6740;DHT22;3407;49.882;10.920;2023-06-24T14:38:25;27.80;5.20
6740;DHT22;3407;49.882;10.920;2023-06-24T14:43:20;27.90;6.70
6740;DHT22;3407;49.882;10.920;2023-06-24T14:48:16;27.80;6.50
6740;DHT22;3407;49.882;10.920;2023-06-24T14:53:11;27.60;5.60
6740;DHT22;3407;49.882;10.920;2023-06-24T14:58:07;27.50;7.00
6740;DHT22;3407;49.882;10.920;2023-06-24T15:03:02;27.60;12.10
6740;DHT22;3407;49.882;10.920;2023-06-24T15:07:58;27.50;8.80
6740;DHT22;3407;49.882;10.920;2023-06-24T15:12:53;27.50;10.60
6740;DHT22;3407;49.882;10.920;2023-06-24T15:17:49;27.60;9.00
6740;DHT22;3407;49.882;10.920;2023-06-24T15:22:45;27.70;9.40
6740;DHT22;3407;49.882;10.920;2023-06-24T15:27:40;27.80;8.50
6740;DHT22;3407;49.882;10.920;2023-06-24T15:32:36;27.50;8.10
6740;DHT22;3407;49.882;10.920;2023-06-24T15:37:31;27.20;7.20
6740;DHT22;3407;49.882;10.920;2023-06-24T15:42:27;27.10;8.00
6740;DHT22;3407;49.882;10.920;2023-06-24T15:47:22;27.00;9.10
6740;DHT22;3407;49.882;10.920;2023-06-24T15:52:18;26.90;9.20
6740;DHT22;3407;49.882;10.920;2023-06-24T15:57:14;26.80;10.30
6740;DHT22;3407;49.882;10.920;2023-06-24T16:02:09;26.70;11.90
6740;DHT22;3407;49.882;10.920;2023-06-24T16:07:05;26.70;11.80
6740;DHT22;3407;49.882;10.920;2023-06-24T16:12:00;26.50;12.10
6740;DHT22;3407;49.882;10.920;2023-06-24T16:16:56;26.40;12.10
6740;DHT22;3407;49.882;10.920;2023-06-24T16:21:51;26.40;12.10
6740;DHT22;3407;49.882;10.920;2023-06-24T16:26:47;26.20;12.30
6740;DHT22;3407;49.882;10.920;2023-06-24T16:31:42;26.10;13.10
6740;DHT22;3407;49.882;10.920;2023-06-24T16:36:38;26.10;13.40
6740;DHT22;3407;49.882;10.920;2023-06-24T16:41:33;25.90;13.30
6740;DHT22;3407;49.882;10.920;2023-06-24T16:46:29;25.70;14.60
6740;DHT22;3407;49.882;10.920;2023-06-24T16:51:24;25.50;16.30
6740;DHT22;3407;49.882;10.920;2023-06-24T16:56:20;25.60;17.10
6740;DHT22;3407;49.882;10.920;2023-06-24T17:01:16;25.60;17.80
6740;DHT22;3407;49.882;10.920;2023-06-24T17:06:12;25.60;18.00
6740;DHT22;3407;49.882;10.920;2023-06-24T17:11:07;25.60;18.50
6740;DHT22;3407;49.882;10.920;2023-06-24T17:16:03;25.50;20.30
6740;DHT22;3407;49.882;10.920;2023-06-24T17:20:59;25.50;19.70
6740;DHT22;3407;49.882;10.920;2023-06-24T17:25:54;25.50;20.10
6740;DHT22;3407;49.882;10.920;2023-06-24T17:30:50;25.40;19.90
6740;DHT22;3407;49.882;10.920;2023-06-24T17:35:45;25.30;21.10
6740;DHT22;3407;49.882;10.920;2023-06-24T17:40:41;25.30;20.20
6740;DHT22;3407;49.882;10.920;2023-06-24T17:45:37;25.20;19.20
6740;DHT22;3407;49.882;10.920;2023-06-24T17:50:33;25.10;19.80
6740;DHT22;3407;49.882;10.920;2023-06-24T17:55:28;25.10;19.70
6740;DHT22;3407;49.882;10.920;2023-06-24T18:00:27;25.00;20.80
6740;DHT22;3407;49.882;10.920;2023-06-24T18:05:23;24.90;20.70
6740;DHT22;3407;49.882;10.920;2023-06-24T18:10:18;24.80;23.50
6740;DHT22;3407;49.882;10.920;2023-06-24T18:15:14;24.70;22.90
6740;DHT22;3407;49.882;10.920;2023-06-24T18:20:10;24.60;22.10
6740;DHT22;3407;49.882;10.920;2023-06-24T18:25:06;24.50;22.80
6740;DHT22;3407;49.882;10.920;2023-06-24T18:30:02;24.40;23.80
6740;DHT22;3407;49.882;10.920;2023-06-24T18:34:58;24.30;24.30
6740;DHT22;3407;49.882;10.920;2023-06-24T18:39:53;24.30;27.10
6740;DHT22;3407;49.882;10.920;2023-06-24T18:44:49;24.20;26.90
6740;DHT22;3407;49.882;10.920;2023-06-24T18:49:45;24.00;27.50
6740;DHT22;3407;49.882;10.920;2023-06-24T18:54:41;24.00;30.00
6740;DHT22;3407;49.882;10.920;2023-06-24T18:59:37;23.90;30.80
6740;DHT22;3407;49.882;10.920;2023-06-24T19:04:33;23.70;33.70
6740;DHT22;3407;49.882;10.920;2023-06-24T19:09:28;23.60;57.30
6740;DHT22;3407;49.882;10.920;2023-06-24T19:14:24;23.40;43.00
6740;DHT22;3407;49.882;10.920;2023-06-24T19:19:19;23.20;48.40
6740;DHT22;3407;49.882;10.920;2023-06-24T19:24:15;23.00;56.20
6740;DHT22;3407;49.882;10.920;2023-06-24T19:29:11;22.80;92.80
6740;DHT22;3407;49.882;10.920;2023-06-24T19:34:07;22.50;99.90
6740;DHT22;3407;49.882;10.920;2023-06-24T19:39:04;22.30;99.90
6740;DHT22;3407;49.882;10.920;2023-06-24T19:44:07;22.10;99.90
6740;DHT22;3407;49.882;10.920;2023-06-24T19:49:02;21.80;99.90
6740;DHT22;3407;49.882;10.920;2023-06-24T19:53:58;21.50;99.90
6740;DHT22;3407;49.882;10.920;2023-06-24T19:58:54;21.30;99.90
6740;DHT22;3407;49.882;10.920;2023-06-24T20:03:50;21.10;99.90
6740;DHT22;3407;49.882;10.920;2023-06-24T20:08:45;21.00;99.90
6740;DHT22;3407;49.882;10.920;2023-06-24T20:13:41;20.90;1.00
6740;DHT22;3407;49.882;10.920;2023-06-24T20:18:36;20.80;25.70
6740;DHT22;3407;49.882;10.920;2023-06-24T20:23:32;20.60;64.20
6740;DHT22;3407;49.882;10.920;2023-06-24T20:28:28;20.40;99.90
6740;DHT22;3407;49.882;10.920;2023-06-24T20:33:23;20.30;1.00
6740;DHT22;3407;49.882;10.920;2023-06-24T20:38:20;20.10;1.00
6740;DHT22;3407;49.882;10.920;2023-06-24T20:43:17;20.00;99.90
6740;DHT22;3407;49.882;10.920;2023-06-24T20:48:17;19.90;1.00
6740;DHT22;3407;49.882;10.920;2023-06-24T20:53:13;19.90;1.00
6740;DHT22;3407;49.882;10.920;2023-06-24T20:58:09;19.90;1.00
6740;DHT22;3407;49.882;10.920;2023-06-24T21:03:05;19.90;1.00
6740;DHT22;3407;49.882;10.920;2023-06-24T21:08:00;19.80;99.90
6740;DHT22;3407;49.882;10.920;2023-06-24T21:12:56;19.70;1.00
6740;DHT22;3407;49.882;10.920;2023-06-24T21:17:52;19.80;99.90
6740;DHT22;3407;49.882;10.920;2023-06-24T21:22:47;19.70;99.90
6740;DHT22;3407;49.882;10.920;2023-06-24T21:27:43;19.60;63.30
6740;DHT22;3407;49.882;10.920;2023-06-24T21:32:39;19.50;24.10
6740;DHT22;3407;49.882;10.920;2023-06-24T21:37:34;19.40;99.90
6740;DHT22;3407;49.882;10.920;2023-06-24T21:42:30;19.30;99.90
6740;DHT22;3407;49.882;10.920;2023-06-24T21:47:25;19.20;99.90
6740;DHT22;3407;49.882;10.920;2023-06-24T21:52:21;18.90;1.00
6740;DHT22;3407;49.882;10.920;2023-06-24T21:57:17;18.80;99.90
6740;DHT22;3407;49.882;10.920;2023-06-24T22:02:12;18.80;1.00
6740;DHT22;3407;49.882;10.920;2023-06-24T22:07:08;18.60;1.00
6740;DHT22;3407;49.882;10.920;2023-06-24T22:12:04;18.40;48.80
6740;DHT22;3407;49.882;10.920;2023-06-24T22:17:01;18.30;79.00
6740;DHT22;3407;49.882;10.920;2023-06-24T22:21:57;18.10;99.90
6740;DHT22;3407;49.882;10.920;2023-06-24T22:26:52;18.00;1.00
6740;DHT22;3407;49.882;10.920;2023-06-24T22:31:48;17.90;65.60
6740;DHT22;3407;49.882;10.920;2023-06-24T22:36:43;17.80;99.90
6740;DHT22;3407;49.882;10.920;2023-06-24T22:41:38;17.70;99.90
6740;DHT22;3407;49.882;10.920;2023-06-24T22:46:34;17.70;56.40
6740;DHT22;3407;49.882;10.920;2023-06-24T22:51:30;17.60;99.90
6740;DHT22;3407;49.882;10.920;2023-06-24T22:56:26;17.60;99.90
6740;DHT22;3407;49.882;10.920;2023-06-24T23:01:21;17.50;99.90
6740;DHT22;3407;49.882;10.920;2023-06-24T23:06:17;17.40;1.00
6740;DHT22;3407;49.882;10.920;2023-06-24T23:11:13;17.20;99.90
6740;DHT22;3407;49.882;10.920;2023-06-24T23:16:09;17.20;1.00
6740;DHT22;3407;49.882;10.920;2023-06-24T23:21:05;17.20;1.00
6740;DHT22;3407;49.882;10.920;2023-06-24T23:26:01;17.10;99.90
6740;DHT22;3407;49.882;10.920;2023-06-24T23:30:59;17.00;1.00
6740;DHT22;3407;49.882;10.920;2023-06-24T23:35:58;16.80;99.90
6740;DHT22;3407;49.882;10.920;2023-06-24T23:40:53;16.60;1.00
6740;DHT22;3407;49.882;10.920;2023-06-24T23:45:50;16.50;1.00
6740;DHT22;3407;49.882;10.920;2023-06-24T23:50:47;16.50;1.00
6740;DHT22;3407;49.882;10.920;2023-06-24T23:55:42;16.50;1.00
